Time;durP1;ratioP1;P1;durP2;ratioP2;P2;SDS_P1;SDS_P2;PMS_P1;PMS_P2;Temp;Humidity;BMP_temperature;BMP_pressure;BME280_temperature;BME280_humidity;BME280_pressure;Samples;Min_cycle;Max_cycle;Signal;HPM_P1;HPM_P2
2022/06/13 00:01:13;;;;;;;36.75;14.73;;;;;;;;;;5031281;28;20053;-73
2022/06/13 00:03:40;;;;;;;49.35;16.95;;;;;;;;;;5038798;28;20061;-73
2022/06/13 00:06:06;;;;;;;41.30;15.90;;;;;;;;;;5034689;28;20029;-73
2022/06/13 00:08:32;;;;;;;39.30;16.10;;;;;;;;;;5033483;28;20080;-73
2022/06/13 00:10:58;;;;;;;36.58;14.80;;;;;;;;;;5030016;28;20032;-74
2022/06/13 00:13:24;;;;;;;31.60;14.80;;;;;;;;;;5034608;28;20086;-74
2022/06/13 00:15:50;;;;;;;35.85;14.00;;;;;;;;;;5024168;28;20104;-73
2022/06/13 00:18:17;;;;;;;31.15;14.77;;;;;;;;;;5048567;28;20407;-73
2022/06/13 00:20:43;;;;;;;37.03;14.43;;;;;;;;;;5030209;28;20057;-73
2022/06/13 00:23:09;;;;;;;36.83;14.40;;;;;;;;;;5039814;28;20029;-73
2022/06/13 00:25:35;;;;;;;38.13;16.00;;;;;;;;;;5017604;28;20107;-74
2022/06/13 00:28:01;;;;;;;44.70;15.00;;;;;;;;;;5017945;28;20035;-74
2022/06/13 00:30:27;;;;;;;31.95;14.25;;;;;;;;;;5030103;28;20053;-74
2022/06/13 00:32:53;;;;;;;32.92;14.15;;;;;;;;;;5035869;28;20079;-74
2022/06/13 00:35:19;;;;;;;34.25;13.45;;;;;;;;;;5035837;28;20052;-73
2022/06/13 00:37:45;;;;;;;28.55;12.45;;;;;;;;;;5034578;28;20108;-74
2022/06/13 00:40:12;;;;;;;32.38;13.65;;;;;;;;;;5023774;28;20494;-74
2022/06/13 00:42:38;;;;;;;36.13;14.18;;;;;;;;;;5029170;28;20022;-74
2022/06/13 00:45:08;;;;;;;31.67;12.98;;;;;;;;;;5030631;28;20110;-73
2022/06/13 00:47:34;;;;;;;29.73;13.88;;;;;;;;;;5036893;28;20043;-74
2022/06/13 00:50:01;;;;;;;28.77;14.82;;;;;;;;;;5027837;28;20049;-74
2022/06/13 00:52:31;;;;;;;28.92;12.95;;;;;;;;;;5030232;28;20095;-73
2022/06/13 00:54:57;;;;;;;32.67;13.27;;;;;;;;;;5032195;28;20028;-74
2022/06/13 00:57:25;;;;;;;41.28;14.75;;;;;;;;;;5033860;28;20182;-74
2022/06/13 00:59:53;;;;;;;31.23;13.98;;;;;;;;;;5034994;28;20075;-74
2022/06/13 01:02:21;;;;;;;39.28;14.65;;;;;;;;;;5032916;28;20033;-73
2022/06/13 01:04:47;;;;;;;33.50;14.70;;;;;;;;;;5032096;28;20452;-73
2022/06/13 01:07:13;;;;;;;34.78;14.82;;;;;;;;;;5028252;28;20116;-74
2022/06/13 01:12:26;;;;;;;33.47;13.68;;;;;;;;;;5028302;28;20047;-73
2022/06/13 01:15:10;;;;;;;32.90;13.85;;;;;;;;;;5036733;28;20140;-73
2022/06/13 01:17:54;;;;;;;29.77;13.85;;;;;;;;;;5036057;28;20118;-75
2022/06/13 01:20:36;;;;;;;28.85;13.95;;;;;;;;;;5029378;28;20530;-73
2022/06/13 01:23:14;;;;;;;28.35;13.25;;;;;;;;;;5035477;28;20183;-74
2022/06/13 01:25:46;;;;;;;34.97;14.55;;;;;;;;;;5034485;28;20083;-74
2022/06/13 01:28:15;;;;;;;31.48;14.02;;;;;;;;;;5033348;28;20506;-74
2022/06/13 01:31:00;;;;;;;29.70;13.23;;;;;;;;;;5034634;28;20029;-74
2022/06/13 01:33:29;;;;;;;27.63;12.98;;;;;;;;;;5033408;28;20128;-74
2022/06/13 01:36:05;;;;;;;30.95;13.95;;;;;;;;;;5034693;28;20095;-75
2022/06/13 01:38:34;;;;;;;39.35;12.95;;;;;;;;;;5034409;28;20074;-73
2022/06/13 01:41:00;;;;;;;29.00;12.77;;;;;;;;;;5032611;28;20108;-74
2022/06/13 01:43:32;;;;;;;36.45;13.70;;;;;;;;;;5032825;28;20573;-73
2022/06/13 01:46:11;;;;;;;33.88;14.38;;;;;;;;;;5029972;28;20656;-74
2022/06/13 01:48:37;;;;;;;31.75;13.75;;;;;;;;;;5034619;28;20502;-74
2022/06/13 01:51:14;;;;;;;35.67;13.95;;;;;;;;;;5032273;28;20141;-73
2022/06/13 01:54:04;;;;;;;36.58;13.65;;;;;;;;;;5035286;28;20283;-74
2022/06/13 01:56:32;;;;;;;32.33;14.20;;;;;;;;;;5033087;28;20056;-74
2022/06/13 01:59:19;;;;;;;36.08;13.57;;;;;;;;;;5038110;28;20140;-74
2022/06/13 02:01:51;;;;;;;25.67;12.63;;;;;;;;;;5025848;28;20086;-74
2022/06/13 02:04:46;;;;;;;29.73;12.63;;;;;;;;;;5037141;28;20040;-73
2022/06/13 02:07:18;;;;;;;37.80;13.25;;;;;;;;;;5018253;28;20037;-74
2022/06/13 02:09:53;;;;;;;32.13;12.85;;;;;;;;;;5034976;28;20021;-74
2022/06/13 02:12:20;;;;;;;29.30;13.38;;;;;;;;;;5035040;28;20542;-75
2022/06/13 02:14:52;;;;;;;33.25;12.70;;;;;;;;;;5030867;28;20042;-74
2022/06/13 02:17:19;;;;;;;27.95;12.55;;;;;;;;;;5034149;28;20029;-73
2022/06/13 02:19:52;;;;;;;42.90;14.85;;;;;;;;;;5034676;28;20501;-73
2022/06/13 02:22:21;;;;;;;29.67;12.30;;;;;;;;;;5031126;28;20041;-74
2022/06/13 02:24:57;;;;;;;35.10;14.43;;;;;;;;;;5029651;28;20149;-73
2022/06/13 02:27:24;;;;;;;40.45;14.68;;;;;;;;;;5031703;28;20039;-74
2022/06/13 02:29:54;;;;;;;35.67;14.05;;;;;;;;;;5034155;28;20525;-74
2022/06/13 02:32:41;;;;;;;42.58;15.63;;;;;;;;;;5026233;28;20116;-74
2022/06/13 02:35:12;;;;;;;39.33;15.57;;;;;;;;;;5031342;28;20035;-74
2022/06/13 02:37:40;;;;;;;41.80;15.60;;;;;;;;;;5030718;28;20028;-73
2022/06/13 02:40:08;;;;;;;38.35;15.27;;;;;;;;;;5036084;28;20029;-74
2022/06/13 02:42:40;;;;;;;47.05;17.27;;;;;;;;;;5022992;28;20033;-73
2022/06/13 02:45:28;;;;;;;43.42;18.25;;;;;;;;;;5037694;28;20021;-73
2022/06/13 02:48:12;;;;;;;47.47;19.60;;;;;;;;;;5037275;28;20028;-73
2022/06/13 02:50:57;;;;;;;52.35;18.45;;;;;;;;;;5028118;28;20111;-73
2022/06/13 02:53:41;;;;;;;54.67;20.90;;;;;;;;;;5034269;28;20044;-73
2022/06/13 02:56:11;;;;;;;52.53;21.65;;;;;;;;;;5032464;28;20038;-73
2022/06/13 02:58:58;;;;;;;55.80;20.02;;;;;;;;;;5049586;28;20060;-73
2022/06/13 03:01:32;;;;;;;69.50;25.25;;;;;;;;;;5019705;28;20037;-73
2022/06/13 03:04:17;;;;;;;60.58;23.08;;;;;;;;;;5027799;28;20055;-74
2022/06/13 03:07:01;;;;;;;60.90;23.80;;;;;;;;;;5034405;28;20064;-73
2022/06/13 03:09:32;;;;;;;59.15;23.90;;;;;;;;;;5036198;28;20475;-72
2022/06/13 03:12:08;;;;;;;69.35;24.27;;;;;;;;;;5030959;28;20375;-72
2022/06/13 03:14:40;;;;;;;61.00;24.95;;;;;;;;;;5025662;28;20040;-73
2022/06/13 03:17:12;;;;;;;62.67;23.75;;;;;;;;;;5035254;28;20336;-73
2022/06/13 03:19:54;;;;;;;62.67;24.45;;;;;;;;;;5048329;28;20037;-73
2022/06/13 03:22:26;;;;;;;64.65;26.33;;;;;;;;;;5047151;28;20051;-74
2022/06/13 03:25:11;;;;;;;65.68;24.30;;;;;;;;;;5039987;28;20029;-73
2022/06/13 03:28:01;;;;;;;65.43;25.13;;;;;;;;;;5053608;28;20028;-74
2022/06/13 03:30:30;;;;;;;68.97;24.70;;;;;;;;;;5032369;28;20434;-73
2022/06/13 03:35:48;;;;;;;73.10;24.95;;;;;;;;;;5034417;28;20104;-73
2022/06/13 03:38:17;;;;;;;66.22;25.55;;;;;;;;;;5033634;28;20025;-74
2022/06/13 03:40:46;;;;;;;63.72;24.50;;;;;;;;;;5035616;28;20032;-74
2022/06/13 03:43:14;;;;;;;60.92;23.77;;;;;;;;;;5034128;28;20122;-73
2022/06/13 03:45:43;;;;;;;63.75;24.77;;;;;;;;;;5041066;28;20060;-73
2022/06/13 03:48:09;;;;;;;60.58;23.48;;;;;;;;;;5035285;28;20041;-73
2022/06/13 03:50:42;;;;;;;57.95;23.80;;;;;;;;;;5034605;28;20046;-74
2022/06/13 03:53:26;;;;;;;62.25;23.60;;;;;;;;;;5039082;28;20514;-74
2022/06/13 03:56:02;;;;;;;61.88;22.42;;;;;;;;;;5039489;28;20037;-73
2022/06/13 03:58:31;;;;;;;55.72;22.15;;;;;;;;;;5037857;28;20033;-73
2022/06/13 04:01:01;;;;;;;60.65;22.90;;;;;;;;;;5031452;28;20522;-73
2022/06/13 04:03:28;;;;;;;64.25;22.98;;;;;;;;;;5036234;28;20025;-74
2022/06/13 04:06:00;;;;;;;57.72;22.38;;;;;;;;;;5030480;28;20083;-73
2022/06/13 04:08:27;;;;;;;51.22;21.95;;;;;;;;;;5037725;28;20029;-73
2022/06/13 04:11:13;;;;;;;56.30;20.52;;;;;;;;;;5034058;28;20028;-73
2022/06/13 04:13:54;;;;;;;60.47;19.73;;;;;;;;;;5040435;28;20025;-72
2022/06/13 04:16:40;;;;;;;49.95;20.77;;;;;;;;;;5034002;28;20036;-74
2022/06/13 04:19:25;;;;;;;40.35;18.52;;;;;;;;;;5037459;28;20048;-75
2022/06/13 04:22:03;;;;;;;46.08;17.30;;;;;;;;;;5031278;28;20120;-74
2022/06/13 04:24:29;;;;;;;36.95;14.10;;;;;;;;;;5044028;28;20040;-74
2022/06/13 04:27:16;;;;;;;34.00;11.45;;;;;;;;;;5027462;28;20032;-74
2022/06/13 04:29:54;;;;;;;29.50;9.10;;;;;;;;;;5027974;28;20044;-73
2022/06/13 04:32:24;;;;;;;26.70;8.98;;;;;;;;;;5028710;28;20033;-73
2022/06/13 04:34:52;;;;;;;22.90;8.93;;;;;;;;;;5033128;28;20090;-73
2022/06/13 04:37:19;;;;;;;23.90;8.07;;;;;;;;;;5036876;28;20769;-74
2022/06/13 04:39:46;;;;;;;20.42;7.03;;;;;;;;;;5035281;28;20025;-73
2022/06/13 04:42:14;;;;;;;26.17;6.75;;;;;;;;;;5026687;28;20065;-72
2022/06/13 04:44:40;;;;;;;20.08;6.25;;;;;;;;;;5033004;28;20026;-73
2022/06/13 04:47:07;;;;;;;18.58;6.18;;;;;;;;;;5033734;28;20029;-73
2022/06/13 04:49:42;;;;;;;22.48;6.88;;;;;;;;;;5035338;28;20124;-73
2022/06/13 04:52:10;;;;;;;21.80;6.75;;;;;;;;;;5034322;28;20361;-73
2022/06/13 04:54:48;;;;;;;24.45;6.93;;;;;;;;;;5041470;28;20107;-72
2022/06/13 04:57:15;;;;;;;20.92;5.80;;;;;;;;;;5035789;28;20271;-73
2022/06/13 04:59:42;;;;;;;20.20;6.20;;;;;;;;;;5036337;28;20033;-72
2022/06/13 05:02:13;;;;;;;16.33;5.57;;;;;;;;;;5032414;28;20021;-73
2022/06/13 05:04:39;;;;;;;18.20;5.20;;;;;;;;;;5035464;28;20112;-73
2022/06/13 05:07:17;;;;;;;13.55;4.95;;;;;;;;;;5053909;28;20509;-73
2022/06/13 05:09:45;;;;;;;16.90;4.95;;;;;;;;;;5038563;28;20190;-72
2022/06/13 05:12:22;;;;;;;14.73;4.80;;;;;;;;;;5026200;28;20079;-75
2022/06/13 05:14:59;;;;;;;17.45;4.43;;;;;;;;;;5027753;28;20021;-75
2022/06/13 05:17:34;;;;;;;18.55;4.93;;;;;;;;;;5030751;28;20026;-76
2022/06/13 05:20:12;;;;;;;18.67;5.43;;;;;;;;;;5035847;28;20178;-76
2022/06/13 05:22:51;;;;;;;8.63;3.83;;;;;;;;;;5029243;28;20036;-76
2022/06/13 05:25:37;;;;;;;15.40;3.90;;;;;;;;;;5034562;28;20064;-75
2022/06/13 05:28:04;;;;;;;15.68;3.55;;;;;;;;;;5014257;28;20073;-76
2022/06/13 05:30:49;;;;;;;19.02;3.33;;;;;;;;;;5031053;28;20387;-76
2022/06/13 05:33:16;;;;;;;13.40;3.63;;;;;;;;;;5035161;28;20040;-76
2022/06/13 05:35:43;;;;;;;9.05;3.10;;;;;;;;;;5024319;28;20029;-78
2022/06/13 05:38:13;;;;;;;13.45;2.55;;;;;;;;;;5035961;28;20037;-74
2022/06/13 05:40:39;;;;;;;8.85;2.90;;;;;;;;;;5033725;28;20037;-76
2022/06/13 05:43:05;;;;;;;6.97;2.40;;;;;;;;;;5028797;28;20052;-76
2022/06/13 05:45:31;;;;;;;9.95;2.67;;;;;;;;;;5040336;28;20033;-76
2022/06/13 05:47:58;;;;;;;12.52;2.42;;;;;;;;;;5029888;28;20017;-76
2022/06/13 05:50:25;;;;;;;8.40;2.35;;;;;;;;;;5028894;28;20072;-76
2022/06/13 05:52:51;;;;;;;8.52;2.42;;;;;;;;;;5028099;28;20021;-78
2022/06/13 05:55:18;;;;;;;10.70;2.60;;;;;;;;;;5030805;28;20080;-74
2022/06/13 05:57:44;;;;;;;9.88;2.47;;;;;;;;;;5029328;28;20025;-75
2022/06/13 06:00:18;;;;;;;8.73;2.38;;;;;;;;;;5032803;28;20060;-75
2022/06/13 06:02:44;;;;;;;10.25;3.03;;;;;;;;;;5033976;28;20066;-75
2022/06/13 06:05:11;;;;;;;11.80;3.35;;;;;;;;;;5018410;28;20030;-77
2022/06/13 06:07:37;;;;;;;10.85;2.80;;;;;;;;;;5033315;28;20044;-77
2022/06/13 06:10:04;;;;;;;11.13;2.97;;;;;;;;;;5029653;28;20030;-77
2022/06/13 06:12:30;;;;;;;11.00;2.45;;;;;;;;;;5028136;28;20087;-76
2022/06/13 06:14:56;;;;;;;13.73;2.60;;;;;;;;;;5034838;28;20502;-77
2022/06/13 06:17:22;;;;;;;10.07;2.53;;;;;;;;;;5008671;28;20037;-74
2022/06/13 06:19:48;;;;;;;18.45;2.47;;;;;;;;;;5015203;28;20104;-75
2022/06/13 06:22:14;;;;;;;11.55;2.45;;;;;;;;;;5030143;28;20039;-76
2022/06/13 06:24:40;;;;;;;16.08;2.95;;;;;;;;;;5030781;28;20033;-77
2022/06/13 06:27:07;;;;;;;13.00;2.60;;;;;;;;;;5035241;28;20029;-76
2022/06/13 06:29:33;;;;;;;15.05;3.22;;;;;;;;;;5028466;28;20524;-75
2022/06/13 06:31:59;;;;;;;10.27;2.42;;;;;;;;;;5029154;28;20017;-76
2022/06/13 06:34:25;;;;;;;14.00;2.53;;;;;;;;;;5025441;28;20033;-76
2022/06/13 06:36:51;;;;;;;7.85;2.22;;;;;;;;;;5012943;28;20590;-76
2022/06/13 06:39:17;;;;;;;9.93;2.10;;;;;;;;;;5030155;28;20041;-75
2022/06/13 06:41:43;;;;;;;13.13;2.85;;;;;;;;;;5027266;28;20065;-75
2022/06/13 06:44:09;;;;;;;11.02;2.60;;;;;;;;;;5030767;28;20125;-75
2022/06/13 06:46:35;;;;;;;12.60;2.20;;;;;;;;;;5029531;28;20499;-76
2022/06/13 06:49:01;;;;;;;13.52;3.38;;;;;;;;;;5030079;28;20056;-76
2022/06/13 06:51:29;;;;;;;16.48;2.70;;;;;;;;;;5026494;28;20065;-76
2022/06/13 07:02:10;;;;;;;9.70;1.70;;;;;;;;;;5025433;28;20048;-74
2022/06/13 07:04:36;;;;;;;12.07;1.90;;;;;;;;;;5025239;28;20041;-76
2022/06/13 07:07:03;;;;;;;12.32;1.70;;;;;;;;;;5017178;28;20399;-76
2022/06/13 07:09:29;;;;;;;11.52;2.03;;;;;;;;;;5017637;28;20073;-77
2022/06/13 07:11:55;;;;;;;5.53;1.40;;;;;;;;;;5026807;28;20029;-76
2022/06/13 07:14:26;;;;;;;14.35;2.08;;;;;;;;;;5030093;28;20022;-78
2022/06/13 07:16:51;;;;;;;;;;;;;;;;;;5028309;28;20032;-77
2022/06/13 07:19:18;;;;;;;7.57;1.60;;;;;;;;;;5026140;28;19999;-77
2022/06/13 07:21:44;;;;;;;7.13;1.40;;;;;;;;;;5028026;28;20036;-77
2022/06/13 07:24:10;;;;;;;5.78;1.50;;;;;;;;;;5028395;28;20037;-76
2022/06/13 07:26:36;;;;;;;11.38;1.48;;;;;;;;;;5027568;28;20535;-77
2022/06/13 07:29:03;;;;;;;8.20;1.42;;;;;;;;;;5028911;28;20068;-78
2022/06/13 07:31:47;;;;;;;7.15;1.33;;;;;;;;;;5024918;28;20673;-76
2022/06/13 07:34:20;;;;;;;6.32;1.45;;;;;;;;;;5026867;28;20104;-76
2022/06/13 07:36:47;;;;;;;9.20;1.90;;;;;;;;;;5035659;28;20487;-77
2022/06/13 07:39:13;;;;;;;10.57;2.00;;;;;;;;;;5028997;28;20112;-77
2022/06/13 07:41:39;;;;;;;7.00;1.48;;;;;;;;;;5010222;28;20099;-77
2022/06/13 07:44:06;;;;;;;8.50;1.55;;;;;;;;;;5024475;28;20030;-76
2022/06/13 07:46:33;;;;;;;9.95;2.05;;;;;;;;;;5021051;28;20109;-75
2022/06/13 07:49:00;;;;;;;10.07;1.48;;;;;;;;;;5028935;28;20076;-76
2022/06/13 07:51:27;;;;;;;10.07;2.28;;;;;;;;;;5023845;28;20045;-76
2022/06/13 07:53:53;;;;;;;10.30;1.70;;;;;;;;;;5026280;28;20029;-77
2022/06/13 07:56:21;;;;;;;9.15;1.85;;;;;;;;;;5025242;28;20028;-75
2022/06/13 07:58:49;;;;;;;6.75;1.45;;;;;;;;;;5023908;28;20034;-76
2022/06/13 08:01:16;;;;;;;5.57;1.10;;;;;;;;;;5040191;28;20479;-75
2022/06/13 08:03:42;;;;;;;6.65;1.27;;;;;;;;;;5025273;28;20060;-76
2022/06/13 08:06:08;;;;;;;8.93;1.58;;;;;;;;;;5031780;28;20088;-76
2022/06/13 08:08:40;;;;;;;7.07;1.63;;;;;;;;;;5030406;28;20029;-76
2022/06/13 08:11:07;;;;;;;13.93;1.67;;;;;;;;;;5032400;28;20029;-76
2022/06/13 08:13:34;;;;;;;10.20;1.50;;;;;;;;;;5031384;28;20037;-75
2022/06/13 08:16:00;;;;;;;9.55;1.50;;;;;;;;;;5029622;28;20048;-76
2022/06/13 08:18:27;;;;;;;7.80;1.88;;;;;;;;;;5026841;28;21615;-76
2022/06/13 08:20:53;;;;;;;8.07;1.33;;;;;;;;;;5013671;28;20037;-75
2022/06/13 08:23:20;;;;;;;6.85;1.50;;;;;;;;;;5042872;28;20025;-73
2022/06/13 08:25:47;;;;;;;7.50;1.67;;;;;;;;;;5015690;28;20664;-75
2022/06/13 08:28:14;;;;;;;6.65;1.40;;;;;;;;;;5026393;28;20025;-75
2022/06/13 08:30:42;;;;;;;9.52;1.50;;;;;;;;;;5031731;28;20029;-74
2022/06/13 08:33:08;;;;;;;6.97;1.60;;;;;;;;;;5026789;28;20017;-76
2022/06/13 08:35:34;;;;;;;7.20;1.38;;;;;;;;;;5014546;28;20048;-76
2022/06/13 08:38:03;;;;;;;6.60;1.50;;;;;;;;;;5026873;28;20033;-76
2022/06/13 08:40:35;;;;;;;8.15;1.65;;;;;;;;;;5031260;28;20067;-77
2022/06/13 08:43:10;;;;;;;6.43;1.33;;;;;;;;;;5027365;28;20029;-76
2022/06/13 08:45:42;;;;;;;10.82;1.67;;;;;;;;;;5029282;28;20068;-77
2022/06/13 08:48:08;;;;;;;10.57;2.17;;;;;;;;;;5027417;28;20025;-76
2022/06/13 08:50:34;;;;;;;6.10;1.65;;;;;;;;;;5028166;28;20081;-77
2022/06/13 08:53:09;;;;;;;9.38;1.50;;;;;;;;;;5014688;28;20030;-76
2022/06/13 08:55:47;;;;;;;11.00;2.03;;;;;;;;;;5010998;28;20026;-75
2022/06/13 08:58:32;;;;;;;7.72;1.52;;;;;;;;;;5012083;28;20053;-75
2022/06/13 09:01:04;;;;;;;6.57;1.45;;;;;;;;;;5033555;28;20027;-76
2022/06/13 09:03:30;;;;;;;9.95;1.50;;;;;;;;;;5030439;28;20128;-77
2022/06/13 09:06:05;;;;;;;12.10;1.63;;;;;;;;;;5024427;28;20065;-76
2022/06/13 09:08:40;;;;;;;7.05;1.70;;;;;;;;;;5019727;28;20123;-77
2022/06/13 09:11:06;;;;;;;9.82;1.77;;;;;;;;;;5029410;28;20056;-76
2022/06/13 09:13:41;;;;;;;8.68;1.50;;;;;;;;;;5030137;28;20499;-76
2022/06/13 09:16:11;;;;;;;6.90;1.63;;;;;;;;;;5020935;28;20029;-76
2022/06/13 09:18:41;;;;;;;5.32;1.20;;;;;;;;;;5027291;28;20036;-75
2022/06/13 09:21:21;;;;;;;6.50;1.40;;;;;;;;;;5026547;28;20033;-76
2022/06/13 09:23:56;;;;;;;8.70;1.48;;;;;;;;;;5028971;28;20030;-76
2022/06/13 09:26:34;;;;;;;11.43;1.48;;;;;;;;;;5017200;28;20040;-75
2022/06/13 09:29:00;;;;;;;9.98;2.13;;;;;;;;;;5025792;28;20025;-77
2022/06/13 09:31:26;;;;;;;7.05;1.65;;;;;;;;;;5020535;28;20637;-76
2022/06/13 09:33:53;;;;;;;9.00;1.60;;;;;;;;;;5028611;28;20091;-76
2022/06/13 09:36:26;;;;;;;8.85;1.52;;;;;;;;;;5026497;28;20376;-77
2022/06/13 09:38:57;;;;;;;9.95;1.92;;;;;;;;;;5014015;28;20034;-77
2022/06/13 09:41:49;;;;;;;8.43;1.75;;;;;;;;;;5017145;28;20159;-77
2022/06/13 09:44:35;;;;;;;8.35;1.58;;;;;;;;;;5024350;28;20590;-76
2022/06/13 09:47:10;;;;;;;5.93;1.70;;;;;;;;;;4997767;28;20034;-77
2022/06/13 09:49:44;;;;;;;4.13;0.98;;;;;;;;;;5030410;28;20026;-77
2022/06/13 09:52:16;;;;;;;7.72;1.25;;;;;;;;;;5029436;28;20092;-78
2022/06/13 09:54:51;;;;;;;6.57;1.25;;;;;;;;;;5027556;28;20029;-75
2022/06/13 09:57:20;;;;;;;6.43;1.48;;;;;;;;;;5026829;28;20040;-77
2022/06/13 09:59:52;;;;;;;9.10;1.70;;;;;;;;;;5027647;28;20530;-75
2022/06/13 10:02:22;;;;;;;10.18;1.92;;;;;;;;;;5027045;28;20059;-75
2022/06/13 10:04:48;;;;;;;;;;;;;;;;;;5018585;28;20045;-78
2022/06/13 10:07:20;;;;;;;5.82;1.48;;;;;;;;;;5027316;28;19912;-75
2022/06/13 10:09:53;;;;;;;7.65;1.65;;;;;;;;;;5029324;28;20026;-75
2022/06/13 10:12:35;;;;;;;8.82;1.60;;;;;;;;;;5023638;28;20087;-75
2022/06/13 10:15:19;;;;;;;7.65;1.60;;;;;;;;;;5024972;28;20029;-77
2022/06/13 10:17:49;;;;;;;6.88;1.38;;;;;;;;;;5026977;28;20029;-75
2022/06/13 10:20:24;;;;;;;7.82;1.90;;;;;;;;;;5025162;28;20059;-75
2022/06/13 10:23:10;;;;;;;8.07;1.70;;;;;;;;;;5022930;28;20053;-76
2022/06/13 10:25:55;;;;;;;6.28;1.40;;;;;;;;;;5021507;28;20079;-78
2022/06/13 10:28:24;;;;;;;13.85;1.60;;;;;;;;;;5029145;28;20108;-78
2022/06/13 10:31:03;;;;;;;9.55;1.40;;;;;;;;;;5027755;28;20087;-76
2022/06/13 10:33:44;;;;;;;5.20;1.30;;;;;;;;;;5026109;28;20072;-77
2022/06/13 10:36:15;;;;;;;7.35;1.27;;;;;;;;;;5027482;28;20023;-79
2022/06/13 10:39:05;;;;;;;4.50;1.40;;;;;;;;;;5027613;28;20029;-75
2022/06/13 10:41:32;;;;;;;5.22;1.17;;;;;;;;;;5017358;28;20037;-76
2022/06/13 10:43:58;;;;;;;6.35;1.35;;;;;;;;;;5023591;28;20056;-76
2022/06/13 10:46:25;;;;;;;10.07;1.70;;;;;;;;;;5024626;28;20037;-78
2022/06/13 10:48:56;;;;;;;3.80;1.10;;;;;;;;;;5009496;28;20228;-75
2022/06/13 10:51:22;;;;;;;11.90;1.58;;;;;;;;;;5011734;28;20053;-76
2022/06/13 10:54:07;;;;;;;6.35;1.40;;;;;;;;;;5016853;28;20040;-76
2022/06/13 10:56:37;;;;;;;6.85;1.40;;;;;;;;;;5012413;28;20072;-75
2022/06/13 10:59:03;;;;;;;7.90;1.50;;;;;;;;;;5027240;28;20037;-76
2022/06/13 11:01:31;;;;;;;8.52;1.60;;;;;;;;;;5025004;28;20033;-76
2022/06/13 11:04:17;;;;;;;7.90;1.27;;;;;;;;;;5028256;28;20040;-75
2022/06/13 11:06:49;;;;;;;6.35;1.20;;;;;;;;;;5028001;28;20044;-75
2022/06/13 11:09:35;;;;;;;7.03;1.45;;;;;;;;;;5027936;28;20088;-76
2022/06/13 11:12:03;;;;;;;7.50;1.63;;;;;;;;;;5027631;28;20041;-76
2022/06/13 11:14:32;;;;;;;5.70;1.65;;;;;;;;;;5023690;28;20104;-75
2022/06/13 11:22:45;;;;;;;7.03;1.60;;;;;;;;;;5027137;28;20064;-76
2022/06/13 11:25:17;;;;;;;6.43;1.30;;;;;;;;;;5022526;28;20048;-75
2022/06/13 11:27:45;;;;;;;12.73;2.30;;;;;;;;;;5023769;28;20026;-75
2022/06/13 11:30:17;;;;;;;4.35;1.30;;;;;;;;;;5026001;28;20582;-78
2022/06/13 11:32:55;;;;;;;8.85;2.03;;;;;;;;;;5028780;28;20513;-80
2022/06/13 11:35:42;;;;;;;8.90;1.30;;;;;;;;;;5027524;28;20353;-76
2022/06/13 11:38:14;;;;;;;6.15;1.58;;;;;;;;;;5015341;28;20110;-76
2022/06/13 11:40:41;;;;;;;6.63;1.50;;;;;;;;;;5036334;28;20041;-77
2022/06/13 11:43:18;;;;;;;10.13;1.77;;;;;;;;;;5033063;28;20037;-75
2022/06/13 11:45:44;;;;;;;8.63;1.50;;;;;;;;;;5041251;28;20142;-74
2022/06/13 11:48:14;;;;;;;8.43;2.03;;;;;;;;;;5041963;28;20025;-73
2022/06/13 11:50:40;;;;;;;8.13;1.70;;;;;;;;;;5034490;28;20033;-75
2022/06/13 11:55:58;;;;;;;5.32;1.48;;;;;;;;;;5025967;28;20064;-75
2022/06/13 11:58:32;;;;;;;6.22;1.42;;;;;;;;;;5027854;28;20045;-76
2022/06/13 12:01:17;;;;;;;6.30;1.27;;;;;;;;;;5029168;28;20034;-76
2022/06/13 12:03:47;;;;;;;7.45;1.58;;;;;;;;;;5026985;28;20046;-76
2022/06/13 12:06:18;;;;;;;7.18;1.60;;;;;;;;;;5030377;28;20033;-76
2022/06/13 12:08:44;;;;;;;;;;;;;;;;;;5025267;28;20036;-76
2022/06/13 12:11:15;;;;;;;8.40;1.73;;;;;;;;;;5029699;28;19909;-77
2022/06/13 12:13:45;;;;;;;7.03;1.63;;;;;;;;;;5024365;28;20025;-74
2022/06/13 12:16:25;;;;;;;11.07;1.52;;;;;;;;;;5029660;28;20025;-76
2022/06/13 12:19:00;;;;;;;7.53;1.30;;;;;;;;;;5034498;28;20021;-76
2022/06/13 12:21:26;;;;;;;6.20;1.25;;;;;;;;;;5027034;28;20353;-76
2022/06/13 12:24:04;;;;;;;6.03;1.40;;;;;;;;;;5028343;28;20017;-76
2022/06/13 12:26:32;;;;;;;7.85;1.70;;;;;;;;;;5029637;28;20030;-74
2022/06/13 12:29:04;;;;;;;12.07;1.60;;;;;;;;;;5034785;28;20025;-74
2022/06/13 12:31:36;;;;;;;7.72;1.80;;;;;;;;;;5030995;28;20026;-76
2022/06/13 12:34:17;;;;;;;7.22;2.05;;;;;;;;;;5033151;28;20044;-76
2022/06/13 12:36:43;;;;;;;;;;;;;;;;;;5027320;28;20037;-75
2022/06/13 12:39:18;;;;;;;10.43;1.95;;;;;;;;;;5040443;28;19909;-72
2022/06/13 12:41:50;;;;;;;11.40;1.58;;;;;;;;;;5027794;28;20144;-76
2022/06/13 12:44:22;;;;;;;9.65;1.65;;;;;;;;;;5025441;28;20037;-77
2022/06/13 12:46:48;;;;;;;6.78;1.35;;;;;;;;;;5040573;28;20563;-76
2022/06/13 12:49:26;;;;;;;8.52;1.58;;;;;;;;;;5031532;28;20171;-76
2022/06/13 12:52:02;;;;;;;9.85;1.63;;;;;;;;;;5022715;28;20088;-76
2022/06/13 12:55:07;;;;;;;12.88;1.73;;;;;;;;;;5028364;28;20485;-76
2022/06/13 12:57:53;;;;;;;8.13;1.67;;;;;;;;;;4964747;28;20031;-76
2022/06/13 13:00:22;;;;;;;5.47;1.70;;;;;;;;;;4952506;28;20149;-74
2022/06/13 13:02:54;;;;;;;11.73;1.80;;;;;;;;;;5007075;28;20521;-76
2022/06/13 13:05:29;;;;;;;10.07;2.00;;;;;;;;;;5030979;28;20042;-74
2022/06/13 13:08:13;;;;;;;7.75;1.63;;;;;;;;;;5027077;28;20317;-75
2022/06/13 13:10:49;;;;;;;6.15;1.70;;;;;;;;;;5031388;28;20029;-73
2022/06/13 13:13:35;;;;;;;9.40;1.83;;;;;;;;;;5031119;28;20029;-77
2022/06/13 13:16:01;;;;;;;13.88;2.63;;;;;;;;;;5031206;28;20030;-74
2022/06/13 13:18:32;;;;;;;8.35;1.95;;;;;;;;;;5030733;28;20026;-74
2022/06/13 13:21:07;;;;;;;9.90;1.90;;;;;;;;;;5029412;28;20057;-74
2022/06/13 13:23:44;;;;;;;6.30;1.95;;;;;;;;;;5030791;28;20483;-74
2022/06/13 13:26:13;;;;;;;7.18;1.73;;;;;;;;;;5010027;28;20030;-75
2022/06/13 13:28:49;;;;;;;14.23;2.08;;;;;;;;;;5011273;28;20105;-75
2022/06/13 13:31:21;;;;;;;9.25;2.15;;;;;;;;;;5010893;28;20105;-74
2022/06/13 13:33:47;;;;;;;6.85;1.80;;;;;;;;;;5026042;28;20026;-76
2022/06/13 13:36:36;;;;;;;6.60;2.03;;;;;;;;;;5011030;28;20128;-75
2022/06/13 13:39:07;;;;;;;8.43;2.15;;;;;;;;;;5005413;28;20061;-76
2022/06/13 13:41:33;;;;;;;15.20;2.35;;;;;;;;;;5011174;28;20061;-76
2022/06/13 13:43:59;;;;;;;9.55;2.13;;;;;;;;;;5010682;28;20030;-77
2022/06/13 13:46:35;;;;;;;11.40;2.10;;;;;;;;;;5025693;28;20474;-75
2022/06/13 13:49:02;;;;;;;8.27;1.90;;;;;;;;;;5025793;28;20041;-76
2022/06/13 13:51:44;;;;;;;9.85;2.10;;;;;;;;;;5016392;28;20037;-77
2022/06/13 13:54:16;;;;;;;8.30;1.80;;;;;;;;;;5029985;28;20037;-76
2022/06/13 13:56:42;;;;;;;9.80;2.00;;;;;;;;;;5029202;28;20111;-75
2022/06/13 13:59:11;;;;;;;12.32;2.08;;;;;;;;;;5029906;28;20491;-75
2022/06/13 14:01:55;;;;;;;11.88;2.22;;;;;;;;;;5028087;28;20041;-76
2022/06/13 14:04:22;;;;;;;11.80;2.13;;;;;;;;;;5029717;28;20075;-76
2022/06/13 14:07:11;;;;;;;14.93;2.47;;;;;;;;;;5030523;28;20056;-75
2022/06/13 14:09:38;;;;;;;12.93;2.38;;;;;;;;;;4983811;28;20088;-76
2022/06/13 14:12:12;;;;;;;8.88;2.45;;;;;;;;;;5030284;28;20045;-76
2022/06/13 14:14:40;;;;;;;15.70;2.25;;;;;;;;;;5030201;28;20529;-76
2022/06/13 14:17:07;;;;;;;12.07;1.85;;;;;;;;;;5028965;28;20033;-76
2022/06/13 14:19:34;;;;;;;10.05;2.17;;;;;;;;;;5029325;28;20482;-76
2022/06/13 14:22:15;;;;;;;12.45;2.00;;;;;;;;;;5012196;28;20069;-76
2022/06/13 14:24:46;;;;;;;10.88;2.25;;;;;;;;;;5029302;28;20109;-77
2022/06/13 14:27:12;;;;;;;11.05;2.67;;;;;;;;;;5030482;28;20029;-77
2022/06/13 14:29:42;;;;;;;13.20;2.58;;;;;;;;;;5024108;28;20037;-76
2022/06/13 14:32:10;;;;;;;11.48;2.65;;;;;;;;;;5033921;28;20529;-77
2022/06/13 14:37:27;;;;;;;11.60;2.20;;;;;;;;;;5032622;28;20414;-77
2022/06/13 14:39:56;;;;;;;13.88;2.40;;;;;;;;;;5037450;28;20100;-76
2022/06/13 14:42:34;;;;;;;12.45;2.17;;;;;;;;;;5044197;28;20021;-76
2022/06/13 14:45:06;;;;;;;12.15;1.80;;;;;;;;;;5035860;28;20471;-76
2022/06/13 14:47:50;;;;;;;10.48;2.35;;;;;;;;;;5039736;28;20030;-76
2022/06/13 14:50:35;;;;;;;12.63;2.10;;;;;;;;;;5040375;28;20045;-77
2022/06/13 14:53:20;;;;;;;14.23;2.17;;;;;;;;;;4999481;28;20096;-76
2022/06/13 14:56:08;;;;;;;13.18;2.72;;;;;;;;;;5004900;28;20030;-75
2022/06/13 15:01:43;;;;;;;14.82;2.53;;;;;;;;;;4994518;28;20037;-76
2022/06/13 15:04:10;;;;;;;7.25;1.88;;;;;;;;;;4997517;28;20053;-76
2022/06/13 15:06:43;;;;;;;13.65;2.13;;;;;;;;;;4988168;28;20026;-75
2022/06/13 15:09:28;;;;;;;9.77;2.42;;;;;;;;;;4989390;28;20044;-73
2022/06/13 15:11:59;;;;;;;7.30;2.33;;;;;;;;;;4985470;28;20026;-76
2022/06/13 15:14:29;;;;;;;9.85;2.28;;;;;;;;;;4987187;28;20034;-75
2022/06/13 15:16:55;;;;;;;12.07;2.58;;;;;;;;;;4996833;28;20490;-76
2022/06/13 15:19:37;;;;;;;15.30;2.78;;;;;;;;;;5001164;28;20036;-76
2022/06/13 15:22:06;;;;;;;6.40;1.98;;;;;;;;;;4996288;28;20066;-76
2022/06/13 15:30:42;;;;;;;8.32;2.10;;;;;;;;;;5002454;28;20124;-75
2022/06/13 15:33:08;;;;;;;11.07;2.30;;;;;;;;;;4997330;28;20022;-75
2022/06/13 15:35:54;;;;;;;10.00;2.28;;;;;;;;;;4997893;28;20088;-74